lunes, 31 de marzo de 2008

Primer vuelo en el asiento izquierdo

Mañana, 1430Z, LECU. Si el tiempo no lo impide, primer vuelo en el lado izquierdo del avión, la Cessnita-152 EC-KIY. Acojonaito estoy (cuando quien debería estarlo es el instructor, al que aun no tengo el gusto de conocer) :-).



No es verdad. Lo cierto es que estoy deseando ya subirme aunque cada vez que me leo la documentación se me acelera el pulso. Estuve el fin de semana volando con el simulador un modelo bastante aproximado al real (mañana lo confirmo) siguiendo la checklist para irme haciendo a la idea de como serán las cosas.

Si saco un rato ya actualizaré esta entrada contando la experiencia.

Actualización 31/3/08 21:30 - Vuelo cancelado por mantenimiento del avión. :-(. Nueva fecha 7/4/08.
 
Actualización 7/4/08 10:30 - Vuelo cancelado por meteo, se espera lio esta tarde:
TAF 
AMD LEVS 070824Z 070918 22012G22KT 9999 BKN020
TEMPO 1518 23020G34KT 7000 SHRA FEW020CB BKN025


Nueva fecha: 10/4/08 aunque me temo que no va a mejorar mucho la cosa.

Actualización 17/4/08 21:30 - Sigo en tierra; cuarta cancelación, de nuevo por meteo. Siguente intento (con pocas esperanzas mañana). Y despues (mas probable) el proximo miercoles 23. ¿será ya el definitivo?

Actualización 23/4/08 12:53 - Parece que hoy si que es la definitiva:
LEVS 231030Z 21004KT 140V280 9999 FEW030 SCT120 18/05 Q1023
LEVS 230800Z 230918 VRB04KT CAVOK TEMPO 1218 23006KT SCT045

Asi que en 3 horas, en el aire. Los nervios empiezan a aparecer.

Actualización 17/4/08 23:45 - SI!. Esta vez si que tuve el primer vuelo. Emocionante y bastante bien incluyendo la toma. Cuando tenga un rato (probablemente durante el fin de semana) escribiré una crónica. Y mañana, de nuevo arriba.